createdAt,value
2016-04-20T08:27:16.688Z,17.38
2016-04-20T08:28:16.847Z,17.3
2016-04-20T08:29:16.849Z,17.34
2016-04-20T08:30:16.852Z,17.52
2016-04-20T08:31:16.871Z,17.95
2016-04-20T08:32:16.873Z,18.13
2016-04-20T08:33:16.876Z,17.83
2016-04-20T08:34:18.066Z,17.64
2016-04-20T08:35:16.912Z,17.02
2016-04-20T08:36:16.915Z,16.36
2016-04-20T08:37:16.902Z,15.62
2016-04-20T08:38:16.904Z,15.1
2016-04-20T08:39:16.923Z,14.73
2016-04-20T08:40:16.910Z,14.41
2016-04-20T08:41:16.913Z,14.33
2016-04-20T08:42:16.931Z,14.23
2016-04-20T08:43:17.684Z,14.28
2016-04-20T08:44:16.921Z,14.18
2016-04-20T08:45:16.940Z,14.05
2016-04-20T08:46:16.957Z,13.87
2016-04-20T08:47:16.789Z,13.81
2016-04-20T08:48:16.963Z,13.67
2016-04-20T08:49:16.951Z,13.62
2016-04-20T08:50:16.968Z,13.52
2016-04-20T08:51:16.956Z,13.65
2016-04-20T08:52:16.958Z,13.72
2016-04-20T08:53:16.992Z,13.56
2016-04-20T08:54:17.042Z,13.46
2016-04-20T08:55:16.997Z,13.46
2016-04-20T08:56:16.984Z,13.46
2016-04-20T08:57:17.002Z,13.63
2016-04-20T08:58:16.990Z,13.81
2016-04-20T08:59:17.008Z,13.93
2016-04-20T09:00:17.011Z,13.95
2016-04-20T09:01:17.014Z,13.97
2016-04-20T09:02:17.016Z,13.97
2016-04-20T09:03:17.019Z,14
2016-04-20T09:04:17.005Z,14.04
2016-04-20T09:05:16.993Z,14.04
2016-04-20T09:06:17.010Z,14.03
2016-04-20T09:07:17.014Z,14.04
2016-04-20T09:08:17.016Z,13.93
2016-04-20T09:09:17.019Z,13.83
2016-04-20T09:10:17.038Z,13.7
2016-04-20T09:11:17.025Z,13.7
2016-04-20T09:12:17.043Z,13.81
2016-04-20T09:13:17.046Z,13.77
2016-04-20T09:14:17.033Z,13.86
2016-04-20T09:15:16.879Z,13.79
2016-04-20T09:16:17.038Z,13.93
2016-04-20T09:17:17.040Z,13.81
2016-04-20T09:18:17.043Z,13.96
2016-04-20T09:19:17.031Z,13.92
2016-04-20T09:20:17.034Z,13.92
2016-04-20T09:21:17.036Z,13.89
2016-04-20T09:22:17.033Z,13.92
2016-04-20T09:23:17.041Z,14.11
2016-04-20T09:24:17.059Z,14.28
2016-04-20T09:25:17.061Z,14.41
2016-04-20T09:26:17.049Z,14.18
2016-04-20T09:27:17.051Z,14.1
2016-04-20T09:28:17.054Z,14.11
2016-04-20T09:29:17.072Z,14.05
2016-04-20T09:30:17.060Z,13.99
2016-04-20T09:31:17.077Z,14.1
2016-04-20T09:32:17.080Z,13.96
2016-04-20T09:33:17.082Z,14.04
2016-04-20T09:34:17.070Z,14.05
2016-04-20T09:35:17.088Z,14.08
2016-04-20T09:36:17.059Z,14.07
2016-04-20T09:37:17.062Z,14.15
2016-04-20T09:38:17.080Z,14.22
2016-04-20T09:39:17.084Z,14.2
2016-04-20T09:40:17.086Z,14.36
2016-04-20T09:41:17.089Z,14.32
2016-04-20T09:42:17.092Z,14.35
2016-04-20T09:43:17.094Z,14.36
2016-04-20T09:44:17.081Z,14.26
2016-04-20T09:45:17.068Z,14.37
2016-04-20T09:46:17.086Z,14.36
2016-04-20T09:47:17.089Z,14.55
2016-04-20T09:48:17.108Z,14.59
2016-04-20T09:49:17.080Z,14.66
2016-04-20T09:50:17.097Z,14.78
2016-04-20T09:51:17.116Z,14.65
2016-04-20T09:52:17.133Z,14.58
2016-04-20T09:53:17.121Z,14.43
2016-04-20T09:54:17.108Z,14.43
2016-04-20T09:55:17.096Z,14.51
2016-04-20T09:56:17.129Z,14.51
2016-04-20T09:57:17.132Z,14.66
2016-04-20T09:58:17.119Z,14.84
2016-04-20T09:59:17.106Z,14.97
2016-04-20T10:00:17.124Z,15
2016-04-20T10:01:17.126Z,15.21
2016-04-20T10:02:17.098Z,15.25
2016-04-20T10:03:17.132Z,15.33
2016-04-20T10:04:17.119Z,15.42
2016-04-20T10:05:17.122Z,15.4
2016-04-20T10:06:17.109Z,15.35
2016-04-20T10:07:17.142Z,15.17
2016-04-20T10:08:17.130Z,15.04
2016-04-20T10:09:17.133Z,15.11
2016-04-20T10:10:17.136Z,14.99
2016-04-20T10:11:17.139Z,15.06
2016-04-20T10:12:17.156Z,15.02
2016-04-20T10:13:17.128Z,15.14
2016-04-20T10:14:17.162Z,15.27
2016-04-20T10:15:17.134Z,15.37
2016-04-20T10:16:17.136Z,15.55
2016-04-20T10:17:17.139Z,15.64
2016-04-20T10:18:17.142Z,15.61
2016-04-20T10:19:17.144Z,15.61
2016-04-20T10:20:17.147Z,15.65
2016-04-20T10:21:17.166Z,15.64
2016-04-20T10:22:17.183Z,15.73
2016-04-20T10:23:17.155Z,15.8
2016-04-20T10:24:17.158Z,15.82
2016-04-20T10:25:17.160Z,15.64
2016-04-20T10:26:17.179Z,15.72
2016-04-20T10:27:17.165Z,15.61
2016-04-20T10:28:17.184Z,15.51
2016-04-20T10:29:17.202Z,15.36
2016-04-20T10:30:17.174Z,15.35
2016-04-20T10:31:17.192Z,15.36
2016-04-20T10:32:17.179Z,15.28
2016-04-20T10:33:17.182Z,15.28
2016-04-20T10:34:17.216Z,15.42
2016-04-20T10:35:17.079Z,15.37
2016-04-20T10:36:17.206Z,15.47
2016-04-20T10:37:17.223Z,15.51
2016-04-20T10:38:17.211Z,15.47
2016-04-20T10:39:17.229Z,15.43
2016-04-20T10:40:17.216Z,15.31
2016-04-20T10:41:17.220Z,15.22
2016-04-20T10:42:17.222Z,15.14
2016-04-20T10:43:17.225Z,15.18
2016-04-20T10:44:17.227Z,15.09
2016-04-20T10:45:17.261Z,14.99
2016-04-20T10:46:17.248Z,15
2016-04-20T10:47:17.220Z,14.96
2016-04-20T10:48:17.238Z,14.96
2016-04-20T10:49:17.256Z,14.97
2016-04-20T10:50:17.118Z,15.1
2016-04-20T10:51:17.230Z,15.15
2016-04-20T10:52:17.233Z,15.24
2016-04-20T10:53:17.235Z,15.4
2016-04-20T10:54:16.504Z,15.43
2016-04-20T10:55:17.257Z,15.44
2016-04-20T10:56:17.275Z,15.4
2016-04-20T10:57:17.246Z,15.33
2016-04-20T10:58:17.265Z,15.28
2016-04-20T10:59:17.267Z,15.25
2016-04-20T11:00:17.270Z,15.22
2016-04-20T11:01:17.257Z,15.37
2016-04-20T11:02:17.260Z,15.4
2016-04-20T11:03:17.263Z,15.47
2016-04-20T11:04:17.281Z,15.42
2016-04-20T11:05:17.440Z,15.36
2016-04-20T11:06:17.270Z,15.35
2016-04-20T11:07:17.289Z,15.44
2016-04-20T11:08:17.292Z,15.64
2016-04-20T11:09:17.295Z,15.76
2016-04-20T11:10:17.312Z,15.72
2016-04-20T11:11:17.300Z,15.52
2016-04-20T11:12:17.318Z,15.42
2016-04-20T11:13:17.290Z,15.54
2016-04-20T11:14:17.292Z,15.59
2016-04-20T11:15:17.295Z,15.72
2016-04-20T11:16:17.344Z,15.75
2016-04-20T11:17:17.300Z,15.76
2016-04-20T11:18:17.303Z,15.73
2016-04-20T11:19:17.322Z,15.75
2016-04-20T11:20:17.325Z,15.61
2016-04-20T11:21:17.311Z,15.65
2016-04-20T11:22:17.876Z,15.65
2016-04-20T11:23:17.347Z,15.76
2016-04-20T11:24:17.819Z,15.8
2016-04-20T11:25:17.338Z,15.91
2016-04-20T11:26:17.308Z,15.83
2016-04-20T11:27:17.327Z,15.82
2016-04-20T11:28:17.345Z,15.75
2016-04-20T11:29:17.348Z,15.83
2016-04-20T11:30:17.335Z,15.84
2016-04-20T11:31:17.338Z,15.92
2016-04-20T11:32:17.357Z,15.94
2016-04-20T11:33:17.344Z,16
2016-04-20T11:34:17.362Z,16.05
2016-04-20T11:35:17.380Z,16.08
2016-04-20T11:36:17.351Z,16.04
2016-04-20T11:37:17.354Z,16.04
2016-04-20T11:38:17.357Z,16.05
2016-04-20T11:39:17.360Z,16.12
2016-04-20T11:40:17.378Z,16.21
2016-04-20T11:41:17.365Z,16.32
2016-04-20T11:42:17.383Z,16.13
2016-04-20T11:43:17.386Z,16.09
2016-04-20T11:44:17.372Z,16.12
2016-04-20T11:45:17.376Z,16.13
2016-04-20T11:46:17.362Z,16.04
2016-04-20T11:47:17.396Z,16.08
2016-04-20T11:48:17.384Z,16.16
2016-04-20T11:49:17.402Z,16.33
2016-04-20T11:50:17.389Z,16.43
2016-04-20T11:51:17.392Z,16.39
2016-04-20T11:52:17.394Z,16.49
2016-04-20T11:53:17.413Z,16.47
2016-04-20T11:54:17.416Z,16.28
2016-04-20T11:55:17.402Z,16.1
2016-04-20T11:56:17.405Z,15.98
2016-04-20T11:57:17.423Z,15.92
2016-04-20T11:58:17.426Z,15.88
2016-04-20T11:59:17.414Z,15.8
2016-04-20T12:00:17.416Z,15.82
2016-04-20T12:01:17.419Z,15.91
2016-04-20T12:02:17.421Z,16.02
2016-04-20T12:03:17.439Z,16.04
2016-04-20T12:04:17.426Z,16.13
2016-04-20T12:05:17.430Z,16.23
2016-04-20T12:06:17.494Z,16.39
2016-04-20T12:07:17.451Z,16.5
2016-04-20T12:08:17.437Z,16.64
2016-04-20T12:09:17.424Z,16.6
2016-04-20T12:10:17.458Z,16.56
2016-04-20T12:11:17.445Z,16.51
2016-04-20T12:12:17.480Z,16.51
2016-04-20T12:13:17.435Z,16.57
2016-04-20T12:14:17.454Z,16.68
2016-04-20T12:15:17.456Z,16.75
2016-04-20T12:16:17.442Z,16.75
2016-04-20T12:17:17.462Z,16.74
2016-04-20T12:18:17.481Z,16.83
2016-04-20T12:19:17.467Z,16.93
2016-04-20T12:20:17.470Z,16.91
2016-04-20T12:21:17.472Z,16.91
2016-04-20T12:22:17.491Z,16.96
2016-04-20T12:23:17.462Z,16.93
2016-04-20T12:24:17.496Z,16.86
2016-04-20T12:25:17.483Z,16.81
2016-04-20T12:26:17.485Z,16.79
2016-04-20T12:27:17.488Z,16.84
2016-04-20T12:28:17.522Z,17.04
2016-04-20T12:29:17.494Z,17.16
2016-04-20T12:30:17.496Z,17.2
2016-04-20T12:31:17.516Z,17.09
2016-04-20T12:32:17.501Z,16.87
2016-04-20T12:33:17.504Z,16.81
2016-04-20T12:34:17.523Z,16.71
2016-04-20T12:35:17.510Z,16.72
2016-04-20T12:36:17.544Z,16.75
2016-04-20T12:37:17.532Z,16.76
2016-04-20T12:38:17.518Z,16.71
2016-04-20T12:39:17.552Z,16.76
2016-04-20T12:40:17.571Z,16.79
2016-04-20T12:41:17.543Z,16.93
2016-04-20T12:42:17.560Z,17.01
2016-04-20T12:43:17.531Z,17.12
2016-04-20T12:44:17.550Z,17.16
2016-04-20T12:45:17.553Z,17.31
2016-04-20T12:46:17.556Z,17.39
2016-04-20T12:47:17.559Z,17.33
2016-04-20T12:48:17.561Z,17.41
2016-04-20T12:49:17.564Z,17.14
2016-04-20T12:50:17.550Z,17.08
2016-04-20T12:51:17.553Z,16.93
2016-04-20T12:52:17.556Z,16.9
2016-04-20T12:53:17.574Z,17.01
2016-04-20T12:54:17.561Z,16.93
2016-04-20T12:55:17.564Z,17.02
2016-04-20T12:56:17.614Z,17.04
2016-04-20T12:57:17.585Z,17.05
2016-04-20T12:58:17.588Z,17.11
2016-04-20T12:59:17.622Z,17.14
2016-04-20T13:00:17.608Z,17.19
2016-04-20T13:01:17.595Z,17.24
2016-04-20T13:02:17.613Z,17.16
2016-04-20T13:03:17.617Z,17.02
2016-04-20T13:04:17.619Z,16.97
2016-04-20T13:05:17.607Z,16.97
2016-04-20T13:06:17.765Z,16.96
2016-04-20T13:07:17.612Z,17.02
2016-04-20T13:08:17.615Z,17.09
2016-04-20T13:09:17.664Z,17.12
2016-04-20T13:10:17.651Z,17.11
2016-04-20T13:11:17.637Z,17.19
2016-04-20T13:12:17.656Z,17.34
2016-04-20T13:13:17.643Z,17.45
2016-04-20T13:14:17.646Z,17.38
2016-04-20T13:15:17.680Z,17.33
2016-04-20T13:16:17.651Z,17.34
2016-04-20T13:17:17.654Z,17.38
2016-04-20T13:18:17.657Z,17.38
2016-04-20T13:19:17.644Z,17.49
2016-04-20T13:20:17.662Z,17.39
2016-04-20T13:21:17.665Z,17.46
2016-04-20T13:22:17.667Z,17.51
2016-04-20T13:23:17.670Z,17.57
2016-04-20T13:24:17.672Z,17.59
2016-04-20T13:25:17.691Z,17.63
2016-04-20T13:26:17.694Z,17.41
2016-04-20T13:27:17.697Z,17.31
2016-04-20T13:28:17.684Z,17.34
2016-04-20T13:29:17.686Z,17.31
2016-04-20T13:30:17.720Z,17.34
2016-04-20T13:31:17.707Z,17.24
2016-04-20T13:32:17.711Z,17.22
2016-04-20T13:33:17.728Z,17.26
2016-04-20T13:34:17.716Z,17.34
2016-04-20T13:35:17.733Z,17.49
2016-04-20T13:36:17.721Z,17.44
2016-04-20T13:37:17.707Z,17.48
2016-04-20T13:38:17.758Z,17.41
2016-04-20T13:39:17.729Z,17.41
2016-04-20T13:40:17.747Z,17.39
2016-04-20T13:41:17.750Z,17.42
2016-04-20T13:42:17.752Z,17.54
2016-04-20T13:43:17.770Z,17.6
2016-04-20T13:44:17.758Z,17.59
2016-04-20T13:45:17.760Z,17.64
2016-04-20T13:46:17.748Z,17.64
2016-04-20T13:47:17.765Z,17.48
2016-04-20T13:48:17.754Z,17.34
2016-04-20T13:49:17.756Z,17.31
2016-04-20T13:50:17.774Z,17.3
2016-04-20T13:51:17.761Z,17.36
2016-04-20T13:52:17.765Z,17.33
2016-04-20T13:53:17.782Z,17.49
2016-04-20T13:54:17.784Z,17.54
2016-04-20T13:55:17.787Z,17.54
2016-04-20T13:56:17.806Z,17.38
2016-04-20T13:57:17.777Z,17.46
2016-04-20T13:58:17.812Z,17.59
2016-04-20T13:59:17.798Z,17.54
2016-04-20T14:00:17.801Z,17.49
2016-04-20T14:01:17.804Z,17.31
2016-04-20T14:02:17.806Z,17.36
2016-04-20T14:03:17.809Z,17.19
2016-04-20T14:04:17.827Z,17.2
2016-04-20T14:05:18.283Z,17.19
2016-04-20T14:06:17.879Z,17.34
2016-04-20T14:07:17.836Z,17.38
2016-04-20T14:08:17.854Z,17.38
2016-04-20T14:09:17.825Z,17.51
2016-04-20T14:10:17.828Z,17.48
2016-04-20T14:11:17.862Z,17.6
2016-04-20T14:12:17.849Z,17.57
2016-04-20T14:13:17.868Z,17.56
2016-04-20T14:14:17.871Z,17.64
2016-04-20T14:15:17.873Z,17.67
2016-04-20T14:16:17.875Z,17.68
2016-04-20T14:17:17.862Z,17.67
2016-04-20T14:18:17.849Z,17.63
2016-04-20T14:19:17.868Z,17.6
2016-04-20T14:20:17.871Z,17.56
2016-04-20T14:21:17.717Z,17.57
2016-04-20T14:22:17.877Z,17.74
2016-04-20T14:23:17.879Z,17.71
2016-04-20T14:24:17.882Z,17.79
2016-04-20T14:25:17.916Z,17.76
2016-04-20T14:26:17.904Z,17.97
2016-04-20T14:27:17.906Z,17.92
2016-04-20T14:28:17.893Z,17.87
2016-04-20T14:29:17.912Z,17.94
2016-04-20T14:30:17.962Z,17.78
2016-04-20T14:31:17.964Z,17.8
2016-04-20T14:32:17.919Z,17.78
2016-04-20T14:33:17.906Z,17.85
2016-04-20T14:34:17.956Z,17.76
2016-04-20T14:35:17.912Z,17.68
2016-04-20T14:36:18.008Z,17.63
2016-04-20T14:37:17.933Z,17.72
2016-04-20T14:38:17.936Z,17.71
2016-04-20T14:39:17.939Z,17.78
2016-04-20T14:40:17.941Z,17.72
2016-04-20T14:41:17.944Z,17.71
2016-04-20T14:42:17.931Z,17.78
2016-04-20T14:43:17.949Z,17.85
2016-04-20T14:44:17.952Z,17.98
2016-04-20T14:45:17.955Z,18.03
2016-04-20T14:46:17.958Z,18.04
2016-04-20T14:47:17.960Z,18.11
2016-04-20T14:48:18.541Z,18.15
2016-04-20T14:49:17.966Z,18.11
2016-04-20T14:50:17.999Z,18.13
2016-04-20T14:51:18.143Z,18.13
2016-04-20T14:52:18.129Z,18.07
2016-04-20T14:53:17.991Z,18.05
2016-04-20T14:54:17.994Z,17.92
2016-04-20T14:55:18.013Z,17.92
2016-04-20T14:56:17.999Z,17.85
2016-04-20T14:57:18.002Z,17.86
2016-04-20T14:58:18.005Z,17.87
2016-04-20T14:59:18.024Z,17.9
2016-04-20T15:00:18.042Z,18
2016-04-20T15:01:18.029Z,17.86
2016-04-20T15:02:18.031Z,17.72
2016-04-20T15:03:18.034Z,17.71
2016-04-20T15:04:18.020Z,17.76
2016-04-20T15:05:18.023Z,17.72
2016-04-20T15:06:18.511Z,17.78
2016-04-20T15:07:18.029Z,17.8
2016-04-20T15:08:18.048Z,17.85
2016-04-20T15:09:18.051Z,17.95
2016-04-20T15:10:18.053Z,18.04
2016-04-20T15:11:18.056Z,18.07
2016-04-20T15:12:18.058Z,18.18
2016-04-20T15:13:18.061Z,18.1
2016-04-20T15:14:18.063Z,18.07
2016-04-20T15:15:18.097Z,17.94
2016-04-20T15:16:18.069Z,17.94
2016-04-20T15:17:18.133Z,17.94
2016-04-20T15:18:18.152Z,17.79
2016-04-20T15:19:18.077Z,17.94
2016-04-20T15:20:18.080Z,17.86
2016-04-20T15:21:18.082Z,17.83
2016-04-20T15:22:18.101Z,17.78
2016-04-20T15:23:18.104Z,17.72
2016-04-20T15:24:18.121Z,17.79
2016-04-20T15:25:18.109Z,17.71
2016-04-20T15:26:21.096Z,17.72
2016-04-20T15:27:18.098Z,17.64
2016-04-20T15:28:18.102Z,17.64
2016-04-20T15:29:18.135Z,17.7
2016-04-20T15:30:18.138Z,17.71
2016-04-20T15:31:18.140Z,17.72
2016-04-20T15:32:18.143Z,17.76
2016-04-20T15:33:18.131Z,17.71
2016-04-20T15:34:18.133Z,17.79
2016-04-20T15:35:18.120Z,17.92
2016-04-20T15:36:18.205Z,17.95
2016-04-20T15:37:18.161Z,17.9
2016-04-20T15:38:18.164Z,17.97
2016-04-20T15:39:18.135Z,17.94
2016-04-20T15:40:18.154Z,17.94
2016-04-20T15:41:18.141Z,17.92
2016-04-20T15:42:18.175Z,17.92
2016-04-20T15:43:18.178Z,17.94
2016-04-20T15:44:18.165Z,17.94
2016-04-20T15:45:18.183Z,17.95
2016-04-20T15:46:18.170Z,17.9
2016-04-20T15:47:18.173Z,17.89
2016-04-20T15:48:18.176Z,17.92
2016-04-20T15:49:18.178Z,17.79
2016-04-20T15:50:18.197Z,17.74
2016-04-20T15:51:18.183Z,17.83
2016-04-20T15:52:18.186Z,17.79
2016-04-20T15:53:18.205Z,17.82
2016-04-20T15:54:18.207Z,17.83
2016-04-20T15:55:18.194Z,17.79
2016-04-20T15:56:18.196Z,17.74
2016-04-20T15:57:18.246Z,17.7
2016-04-20T15:58:18.255Z,17.68
2016-04-20T15:59:18.299Z,17.59
2016-04-20T16:00:18.344Z,17.68
2016-04-20T16:01:18.388Z,17.65
2016-04-20T16:02:18.432Z,17.63
2016-04-20T16:03:18.458Z,17.67
2016-04-20T16:04:18.524Z,17.7
2016-04-20T16:06:46.801Z,17.72
2016-04-20T16:06:59.535Z,17.68
2016-04-20T16:07:59.253Z,17.67
2016-04-20T16:08:59.261Z,17.63
2016-04-20T16:09:59.427Z,17.65
2016-04-20T16:10:59.465Z,17.6
2016-04-20T16:11:59.427Z,17.56
2016-04-20T16:12:59.464Z,17.57
2016-04-20T16:13:59.454Z,17.56
2016-04-20T16:14:59.459Z,17.57
2016-04-20T16:15:59.464Z,17.48
2016-04-20T16:16:59.482Z,17.64
2016-04-20T16:17:59.503Z,17.63
2016-04-20T16:18:59.491Z,17.63
2016-04-20T16:19:59.479Z,17.63
2016-04-20T16:20:59.483Z,17.67
2016-04-20T16:21:59.486Z,17.57
2016-04-20T16:22:59.490Z,17.65
2016-04-20T16:23:59.507Z,17.59
2016-04-20T16:24:59.510Z,17.63
2016-04-20T16:25:59.529Z,17.7
2016-04-20T16:26:59.501Z,17.6
2016-04-20T16:27:59.519Z,17.49
2016-04-20T16:28:59.522Z,17.42
2016-04-20T16:29:59.525Z,17.38
2016-04-20T16:30:59.528Z,17.34
2016-04-20T16:31:59.515Z,17.31
2016-04-20T16:32:59.549Z,17.3
2016-04-20T16:33:59.520Z,17.38
2016-04-20T16:34:59.554Z,17.42
2016-04-20T16:35:59.541Z,17.31
2016-04-20T16:36:59.528Z,17.39
2016-04-20T16:37:59.390Z,17.51
2016-04-20T16:38:59.549Z,17.54
2016-04-20T16:39:59.380Z,17.46
2016-04-20T16:40:59.554Z,17.46
2016-04-20T16:41:59.573Z,17.57
2016-04-20T16:42:59.591Z,17.52
2016-04-20T16:43:59.562Z,17.48
2016-04-20T16:44:59.565Z,17.48
2016-04-20T16:45:59.584Z,17.42
2016-04-20T16:46:59.570Z,17.41
2016-04-20T16:47:59.573Z,17.39
2016-04-20T16:48:59.576Z,17.34
2016-04-20T16:49:59.579Z,17.34
2016-04-20T16:50:59.598Z,17.33
2016-04-20T16:51:59.600Z,17.27
2016-04-20T16:52:59.618Z,17.19
2016-04-20T16:53:59.605Z,17.23
2016-04-20T16:54:59.592Z,17.34
2016-04-20T16:55:59.595Z,17.36
2016-04-20T16:56:59.613Z,17.19
2016-04-20T16:57:59.616Z,17.15
2016-04-20T16:58:59.634Z,17.16
2016-04-20T16:59:59.606Z,17.14
2016-04-20T17:00:59.608Z,17.09
2016-04-20T17:01:59.627Z,17.02
2016-04-20T17:02:59.613Z,16.94
2016-04-20T17:03:59.616Z,16.94
2016-04-20T17:04:59.619Z,16.93
2016-04-20T17:05:59.622Z,16.93
2016-04-20T17:06:59.624Z,16.97
2016-04-20T17:07:59.627Z,17.04
2016-04-20T17:08:59.630Z,16.96
2016-04-20T17:09:59.648Z,16.99
2016-04-20T17:10:58.901Z,16.93
2016-04-20T17:11:59.654Z,16.93
2016-04-20T17:12:59.641Z,16.89
2016-04-20T17:13:59.674Z,16.9
2016-04-20T17:14:59.662Z,16.84
2016-04-20T17:15:59.680Z,16.89
2016-04-20T17:16:59.668Z,16.76
2016-04-20T17:17:59.670Z,16.93
2016-04-20T17:18:59.703Z,16.78
2016-04-20T17:19:59.690Z,16.81
2016-04-20T17:20:59.647Z,16.9
2016-04-20T17:21:59.650Z,16.81
2016-04-20T17:22:59.684Z,16.89
2016-04-20T17:23:59.686Z,16.84
2016-04-20T17:24:59.673Z,16.86
2016-04-20T17:25:59.692Z,16.74
2016-04-20T17:26:59.694Z,16.83
2016-04-20T17:27:59.696Z,16.76
2016-04-20T17:28:59.683Z,16.79
2016-04-20T17:29:59.703Z,16.84
2016-04-20T17:30:59.689Z,16.76
2016-04-20T17:31:59.707Z,16.74
2016-04-20T17:32:59.695Z,16.78
2016-04-20T17:33:59.713Z,16.72
2016-04-20T17:34:59.731Z,16.71
2016-04-20T17:35:59.719Z,16.71
2016-04-20T17:36:59.721Z,16.68
2016-04-20T17:37:59.583Z,16.74
2016-04-20T17:38:59.741Z,16.6
2016-04-20T17:39:59.713Z,16.65
2016-04-20T17:40:59.701Z,16.53
2016-04-20T17:41:59.704Z,16.54
2016-04-20T17:42:59.707Z,16.5
2016-04-20T17:43:59.740Z,16.39
2016-04-20T17:44:59.727Z,16.46
2016-04-20T17:45:59.746Z,16.43
2016-04-20T17:46:59.732Z,16.38
2016-04-20T17:47:59.735Z,16.32
2016-04-20T17:48:59.768Z,16.35
2016-04-20T17:49:59.741Z,16.31
2016-04-20T17:50:59.728Z,16.31
2016-04-20T17:51:59.746Z,16.31
2016-04-20T17:52:59.764Z,16.28
2016-04-20T17:54:04.257Z,16.26
2016-04-20T17:54:59.744Z,16.28
2016-04-20T17:55:59.762Z,16.23
2016-04-20T17:56:59.765Z,16.17
2016-04-20T17:57:59.768Z,16.13
2016-04-20T17:58:59.739Z,16.09
2016-04-20T17:59:59.742Z,16.09
2016-04-20T18:00:59.728Z,16.09
2016-04-20T18:01:59.762Z,16.01
2016-04-20T18:02:59.750Z,15.92
2016-04-20T18:03:59.752Z,15.9
2016-04-20T18:04:59.756Z,15.88
2016-04-20T18:05:59.773Z,15.86
2016-04-20T18:06:59.696Z,15.83
2016-04-20T18:07:59.761Z,15.83
2016-04-20T18:08:59.765Z,15.75
2016-04-20T18:09:59.783Z,15.75
2016-04-20T18:10:59.785Z,15.7
2016-04-20T18:11:59.773Z,15.7
2016-04-20T18:12:59.775Z,15.68
2016-04-20T18:13:59.793Z,15.65
2016-04-20T18:14:59.764Z,15.64
2016-04-20T18:16:02.783Z,15.62
2016-04-20T18:16:59.770Z,15.65
2016-04-20T18:17:59.793Z,15.55
2016-04-20T18:18:59.795Z,15.58
2016-04-20T18:19:59.781Z,15.51
2016-04-20T18:20:59.770Z,15.51
2016-04-20T18:21:59.667Z,15.55
2016-04-20T18:22:59.795Z,15.43
2016-04-20T18:23:59.782Z,15.43
2016-04-20T18:24:59.784Z,15.44
2016-04-20T18:25:59.786Z,15.24
2016-04-20T18:26:59.775Z,15.37
2016-04-20T18:27:59.636Z,15.22
2016-04-20T18:28:59.827Z,15.22
2016-04-20T18:29:59.798Z,15.21
2016-04-20T18:30:59.644Z,15.1
2016-04-20T18:31:59.819Z,15.19
2016-04-20T18:32:59.822Z,15.21
2016-04-20T18:33:59.793Z,15.18
2016-04-20T18:34:59.811Z,15.04
2016-04-20T18:35:59.814Z,15.04
2016-04-20T18:36:59.817Z,15.06
2016-04-20T18:37:59.819Z,14.96
2016-04-20T18:38:59.807Z,14.92
2016-04-20T18:39:59.810Z,14.92
2016-04-20T18:40:59.657Z,14.89
2016-04-20T18:41:59.846Z,14.99
2016-04-20T18:42:59.802Z,14.94
2016-04-20T18:43:59.820Z,14.92
2016-04-20T18:44:59.807Z,14.92
2016-04-20T18:45:59.809Z,14.82
2016-04-20T18:46:59.813Z,14.81
2016-04-20T18:47:59.831Z,14.69
2016-04-20T18:48:59.834Z,14.65
2016-04-20T18:49:59.820Z,14.66
2016-04-20T18:50:59.823Z,14.62
2016-04-20T18:51:59.856Z,14.59
2016-04-20T18:52:59.814Z,14.58
2016-04-20T18:53:59.816Z,14.55
2016-04-20T18:54:59.834Z,14.5
2016-04-20T18:55:59.072Z,14.51
2016-04-20T18:56:59.839Z,14.47
2016-04-20T18:57:59.827Z,14.43
2016-04-20T18:58:59.814Z,14.37
2016-04-20T18:59:59.832Z,14.3
2016-04-20T19:00:59.836Z,14.35
2016-04-20T19:01:59.838Z,14.29
2016-04-20T19:02:59.840Z,14.22
2016-04-20T19:03:59.843Z,14.14
2016-04-20T19:04:59.830Z,14.2
2016-04-20T19:05:59.833Z,14.23
2016-04-20T19:06:59.852Z,14.22
2016-04-20T19:07:59.821Z,14.12
2016-04-20T19:08:59.840Z,14.1
2016-04-20T19:09:59.843Z,14.11
2016-04-20T19:10:59.830Z,14.1
2016-04-20T19:11:59.832Z,14.04
2016-04-20T19:12:59.680Z,14.04
2016-04-20T19:13:59.885Z,13.96
2016-04-20T19:14:59.841Z,13.92
2016-04-20T19:15:59.844Z,14.04
2016-04-20T19:16:59.831Z,13.96
2016-04-20T19:17:59.833Z,13.96
2016-04-20T19:18:59.836Z,13.93
2016-04-20T19:19:59.839Z,13.96
2016-04-20T19:20:59.842Z,14.03
2016-04-20T19:21:59.860Z,13.92
2016-04-20T19:22:59.862Z,13.95
2016-04-20T19:23:59.850Z,13.93
2016-04-20T19:24:59.852Z,13.81
2016-04-20T19:25:59.933Z,13.81
2016-04-20T19:26:59.858Z,13.78
2016-04-20T19:27:59.861Z,13.72
2016-04-20T19:28:59.863Z,13.7
2016-04-20T19:29:59.850Z,13.7
2016-04-20T19:30:59.853Z,13.7
2016-04-20T19:31:59.855Z,13.71
2016-04-20T19:32:59.859Z,13.62
2016-04-20T19:33:59.845Z,13.54
2016-04-20T19:34:59.894Z,13.56
2016-04-20T19:35:59.866Z,13.56
2016-04-20T19:36:59.869Z,13.49
2016-04-20T19:37:59.855Z,13.56
2016-04-20T19:38:59.859Z,13.41
2016-04-20T19:39:59.846Z,13.49
2016-04-20T19:40:59.864Z,13.5
2016-04-20T19:41:59.852Z,13.44
2016-04-20T19:42:59.869Z,13.38
2016-04-20T19:43:59.857Z,13.38
2016-04-20T19:44:59.859Z,13.37
2016-04-20T19:45:59.862Z,13.27
2016-04-20T19:46:59.865Z,13.27
2016-04-20T19:47:59.883Z,13.27
2016-04-20T19:48:59.870Z,13.25
2016-04-20T19:49:59.857Z,13.27
2016-04-20T19:50:59.860Z,13.25
2016-04-20T19:51:59.862Z,13.31
2016-04-20T19:52:59.865Z,13.28
2016-04-20T19:53:59.867Z,13.41
2016-04-20T19:54:59.886Z,13.37
2016-04-20T19:55:59.873Z,13.31
2016-04-20T19:56:59.861Z,13.27
2016-04-20T19:57:59.878Z,13.19
2016-04-20T19:58:59.881Z,13.01
2016-04-20T19:59:59.869Z,13.01
2016-04-20T20:00:59.856Z,13
2016-04-20T20:01:59.874Z,12.97
2016-04-20T20:02:59.861Z,12.98
2016-04-20T20:03:59.879Z,12.94
2016-04-20T20:04:59.883Z,12.86
2016-04-20T20:05:59.885Z,12.83
2016-04-20T20:06:59.872Z,12.75
2016-04-20T20:07:59.890Z,12.73
2016-04-20T20:08:59.877Z,12.75
2016-04-20T20:09:59.863Z,12.68
2016-04-20T20:10:59.882Z,12.55
2016-04-20T20:11:59.870Z,12.46
2016-04-20T20:12:59.887Z,12.4
2016-04-20T20:13:59.874Z,12.36
2016-04-20T20:14:59.877Z,12.36
2016-04-20T20:15:59.958Z,12.27
2016-04-20T20:16:59.868Z,12.25
2016-04-20T20:17:59.870Z,12.21
2016-04-20T20:18:59.873Z,12.15
2016-04-20T20:19:59.891Z,12.04
2016-04-20T20:20:59.862Z,12.02
2016-04-20T20:21:59.875Z,11.99
2016-04-20T20:22:59.198Z,11.88
2016-04-20T20:23:59.889Z,11.94
2016-04-20T20:24:59.906Z,11.86
2016-04-20T20:25:59.878Z,11.84
2016-04-20T20:26:59.896Z,11.84
2016-04-20T20:27:59.900Z,11.75
2016-04-20T20:28:59.902Z,11.8
2016-04-20T20:29:59.857Z,11.83
2016-04-20T20:30:59.892Z,11.81
2016-04-20T20:31:59.863Z,11.83
2016-04-20T20:32:59.866Z,11.7
2016-04-20T20:33:59.868Z,11.73
2016-04-20T20:34:59.871Z,11.77
2016-04-20T20:35:59.889Z,11.68
2016-04-20T20:36:59.876Z,11.6
2016-04-20T20:37:59.864Z,11.59
2016-04-20T20:38:59.897Z,11.59
2016-04-20T20:39:59.868Z,11.57
2016-04-20T20:40:59.856Z,11.52
2016-04-20T20:41:59.859Z,11.55
2016-04-20T20:42:59.876Z,11.57
2016-04-20T20:43:59.848Z,11.51
2016-04-20T20:44:59.867Z,11.5
2016-04-20T20:45:59.853Z,11.47
2016-04-20T20:46:59.857Z,11.48
2016-04-20T20:47:59.859Z,11.37
2016-04-20T20:48:59.861Z,11.47
2016-04-20T20:49:59.865Z,11.45
2016-04-20T20:50:59.883Z,11.35
2016-04-20T20:51:59.853Z,11.44
2016-04-20T20:52:59.856Z,11.37
2016-04-20T20:53:59.860Z,11.36
2016-04-20T20:54:59.862Z,11.29
2016-04-20T20:55:59.865Z,11.33
2016-04-20T20:57:00.539Z,11.36
2016-04-20T20:57:59.870Z,11.33
2016-04-20T20:58:59.888Z,11.29
2016-04-20T21:00:04.533Z,11.36
2016-04-20T21:00:59.847Z,11.32
2016-04-20T21:01:59.851Z,11.36
2016-04-20T21:02:59.853Z,11.4
2016-04-20T21:03:59.904Z,11.32
2016-04-20T21:04:59.859Z,11.27
2016-04-20T21:05:59.846Z,11.22
2016-04-20T21:06:59.880Z,11.1
2016-04-20T21:07:59.851Z,11.15
2016-04-20T21:08:59.838Z,11.14
2016-04-20T21:09:59.841Z,11.11
2016-04-20T21:10:59.876Z,11.04
2016-04-20T21:11:59.846Z,11.1
2016-04-20T21:12:59.849Z,10.97
2016-04-20T21:13:59.852Z,11.05
2016-04-20T21:14:59.855Z,10.97
2016-04-20T21:15:59.842Z,11.04
2016-04-20T21:16:59.844Z,10.96
2016-04-20T21:17:59.847Z,10.96
2016-04-20T21:18:59.866Z,10.96
2016-04-20T21:19:59.836Z,10.92
2016-04-20T21:20:59.839Z,10.96
2016-04-20T21:21:59.841Z,10.94
2016-04-20T21:22:59.844Z,10.93